Warsaw, Missouri
Current Conditions -  °F | °C
As of 9:55 AM on Sunday 21 Dec 2014 (Local Time) from KGLY Reporting Station
Haze Haze  
Wind Chill: 37°   Ceiling: 500
Heat Index: 43°   Visibility: 1.5mi
Dew Point: 41°   Wind: 9mph
Humidity: 93%   Direction: 150°SSE
Pressure: 30.08"   Gusts: NA
Location:  38.24°N, 93.38°W
Report Text: KGLY 211555Z AUTO 15008KT 1 1/2SM BR OVC005 06/05 A3008 RMK AO2
Loading
Personal Weather Stations






























Interactive Weather Map New forecast layout! Learn more

10-Day Weather Forecast

Advertisements
Track Severe Weather on mobile